Time;durP1;ratioP1;P1;durP2;ratioP2;P2;SDS_P1;SDS_P2;PMS_P1;PMS_P2;Temp;Humidity;BMP_temperature;BMP_pressure;BME280_temperature;BME280_humidity;BME280_pressure;Samples;Min_cycle;Max_cycle;Signal;HPM_P1;HPM_P2
2022/05/30 00:02:19;;;;;;;3.60;3.17;;;9.70;99.90;;;;;;5024947;28;20202;-65
2022/05/30 00:04:46;;;;;;;4.00;3.20;;;9.70;99.90;;;;;;5021720;28;20209;-64
2022/05/30 00:07:13;;;;;;;5.40;3.20;;;9.60;99.90;;;;;;5021131;28;20412;-65
2022/05/30 00:09:39;;;;;;;4.03;2.90;;;9.70;99.90;;;;;;5020724;28;20657;-64
2022/05/30 00:12:07;;;;;;;4.60;3.30;;;9.80;99.90;;;;;;5025978;28;20211;-65
2022/05/30 00:14:33;;;;;;;3.70;2.87;;;9.80;99.90;;;;;;5025403;28;20224;-64
2022/05/30 00:17:01;;;;;;;3.67;3.07;;;9.80;99.90;;;;;;5019443;28;20687;-65
2022/05/30 00:19:27;;;;;;;4.17;2.83;;;9.80;99.90;;;;;;5017470;28;20308;-64
2022/05/30 00:21:56;;;;;;;3.77;2.87;;;9.80;99.90;;;;;;5019795;28;20209;-65
2022/05/30 00:24:23;;;;;;;4.63;3.27;;;9.70;99.90;;;;;;5020935;28;20217;-64
2022/05/30 00:26:50;;;;;;;5.03;3.03;;;9.60;99.90;;;;;;5014345;28;20199;-64
2022/05/30 00:29:16;;;;;;;4.73;2.67;;;9.60;99.90;;;;;;5024264;28;20210;-65
2022/05/30 00:31:43;;;;;;;3.90;3.23;;;9.60;99.90;;;;;;5025158;28;20206;-65
2022/05/30 00:34:10;;;;;;;5.13;3.00;;;9.50;99.90;;;;;;5021058;28;20226;-65
2022/05/30 00:36:37;;;;;;;3.80;3.13;;;9.40;99.90;;;;;;5018397;28;20205;-65
2022/05/30 00:39:04;;;;;;;3.87;2.83;;;9.40;99.90;;;;;;5018497;28;20226;-64
2022/05/30 00:41:31;;;;;;;4.37;3.10;;;9.40;99.90;;;;;;5014769;28;20287;-64
2022/05/30 00:43:58;;;;;;;4.50;3.10;;;9.40;99.90;;;;;;5033995;28;20216;-65
2022/05/30 00:46:25;;;;;;;5.77;3.10;;;9.50;99.90;;;;;;5016389;28;20665;-64
2022/05/30 00:48:55;;;;;;;4.37;3.20;;;9.30;99.90;;;;;;5022734;28;20198;-65
2022/05/30 00:51:31;;;;;;;4.60;3.50;;;9.30;99.90;;;;;;5018198;28;20200;-65
2022/05/30 00:53:59;;;;;;;4.47;3.23;;;9.40;99.90;;;;;;5025523;28;20212;-65
2022/05/30 00:56:32;;;;;;;5.47;3.17;;;9.40;99.90;;;;;;5019958;28;20567;-65
2022/05/30 00:59:00;;;;;;;4.57;3.13;;;9.30;99.90;;;;;;5016989;28;20659;-66
2022/05/30 01:01:28;;;;;;;3.47;3.00;;;9.30;99.90;;;;;;5019888;28;20569;-65
2022/05/30 01:06:44;;;;;;;5.47;2.90;;;9.20;99.90;;;;;;5027625;28;20195;-66
2022/05/30 01:09:30;;;;;;;5.30;3.03;;;9.20;99.90;;;;;;5017115;28;20559;-64
2022/05/30 01:12:02;;;;;;;4.43;3.13;;;8.90;99.90;;;;;;5020285;28;20205;-63
2022/05/30 01:14:32;;;;;;;3.83;2.73;;;8.80;99.90;;;;;;5023121;28;20229;-64
2022/05/30 01:16:59;;;;;;;5.20;3.10;;;8.70;99.90;;;;;;5020316;28;20203;-63
2022/05/30 01:19:47;;;;;;;5.00;2.87;;;8.60;99.90;;;;;;5021965;28;20217;-64
2022/05/30 01:22:40;;;;;;;5.33;3.40;;;8.50;99.90;;;;;;5020080;28;20562;-66
2022/05/30 01:25:12;;;;;;;5.43;3.40;;;8.40;99.90;;;;;;5017987;28;20588;-64
2022/05/30 01:27:38;;;;;;;6.83;3.67;;;8.30;99.90;;;;;;5019420;28;21732;-64
2022/05/30 01:30:13;;;;;;;5.23;3.50;;;8.30;99.90;;;;;;5022714;28;20207;-65
2022/05/30 01:32:39;;;;;;;3.83;3.03;;;8.30;99.90;;;;;;5023348;28;20205;-64
2022/05/30 01:35:07;;;;;;;4.37;3.37;;;8.30;99.90;;;;;;5020262;28;20565;-64
2022/05/30 01:37:35;;;;;;;4.47;3.20;;;8.20;99.90;;;;;;5021555;28;20192;-64
2022/05/30 01:40:02;;;;;;;5.43;3.33;;;8.10;99.90;;;;;;5021346;28;20211;-64
2022/05/30 01:42:29;;;;;;;4.60;2.97;;;8.00;99.90;;;;;;5024196;28;20480;-64
2022/05/30 01:44:55;;;;;;;4.30;3.20;;;8.00;99.90;;;;;;5013212;28;20637;-64
2022/05/30 01:47:22;;;;;;;4.00;3.33;;;7.90;99.90;;;;;;5017717;28;20196;-64
2022/05/30 01:49:49;;;;;;;7.07;3.73;;;8.00;99.90;;;;;;5020116;28;20195;-64
2022/05/30 01:52:15;;;;;;;4.70;3.13;;;8.00;99.90;;;;;;5021198;28;20587;-64
2022/05/30 01:54:42;;;;;;;4.53;3.23;;;8.10;99.90;;;;;;5021021;28;20223;-64
2022/05/30 01:57:09;;;;;;;6.20;4.17;;;8.10;99.90;;;;;;5020162;28;20200;-64
2022/05/30 01:59:35;;;;;;;6.63;4.00;;;8.20;99.90;;;;;;5018605;28;20702;-64
2022/05/30 02:02:02;;;;;;;6.80;4.47;;;8.20;99.90;;;;;;5020859;28;20188;-64
2022/05/30 02:04:29;;;;;;;6.67;4.50;;;8.10;99.90;;;;;;5015359;28;20224;-64
2022/05/30 02:06:56;;;;;;;5.60;4.13;;;8.10;99.90;;;;;;5015100;28;20675;-64
2022/05/30 02:09:23;;;;;;;8.97;5.63;;;8.10;99.90;;;;;;5022571;28;20195;-64
2022/05/30 02:11:49;;;;;;;8.90;5.63;;;8.00;99.90;;;;;;5019854;28;20201;-64
2022/05/30 02:14:16;;;;;;;9.67;5.13;;;8.00;99.90;;;;;;5022909;28;20226;-63
2022/05/30 02:17:01;;;;;;;9.57;5.40;;;8.00;99.90;;;;;;5020817;28;20195;-64
2022/05/30 02:19:34;;;;;;;9.87;6.10;;;8.00;99.90;;;;;;5015677;28;20279;-64
2022/05/30 02:22:01;;;;;;;8.40;5.63;;;8.00;99.90;;;;;;5021689;28;20191;-64
2022/05/30 02:24:28;;;;;;;10.83;6.17;;;8.00;99.90;;;;;;5024979;28;20220;-64
2022/05/30 02:26:55;;;;;;;12.83;6.33;;;8.10;99.90;;;;;;5021673;28;20191;-64
2022/05/30 02:29:21;;;;;;;9.17;6.30;;;8.10;99.90;;;;;;5027715;28;20200;-64
2022/05/30 02:31:48;;;;;;;9.93;6.10;;;8.20;99.90;;;;;;5023619;28;20219;-64
2022/05/30 02:37:00;;;;;;;10.13;5.90;;;8.20;99.90;;;;;;5021834;28;20200;-64
2022/05/30 02:39:29;;;;;;;11.47;6.87;;;8.00;99.90;;;;;;5017018;28;20241;-64
2022/05/30 02:41:56;;;;;;;12.13;7.17;;;8.00;99.90;;;;;;5023079;28;20203;-64
2022/05/30 02:44:25;;;;;;;11.33;6.97;;;8.20;99.90;;;;;;5023359;28;20222;-64
2022/05/30 02:46:54;;;;;;;10.40;6.93;;;8.30;99.90;;;;;;5016462;28;20190;-64
2022/05/30 02:49:21;;;;;;;12.80;7.33;;;8.30;99.90;;;;;;5020758;28;20244;-64
2022/05/30 02:51:49;;;;;;;9.97;7.20;;;8.40;99.90;;;;;;5022107;28;20647;-64
2022/05/30 02:54:16;;;;;;;14.47;8.03;;;8.30;99.90;;;;;;5019047;28;20221;-64
2022/05/30 02:56:51;;;;;;;12.70;8.40;;;8.40;99.90;;;;;;5021490;28;20192;-64
2022/05/30 02:59:18;;;;;;;13.57;7.97;;;8.40;99.90;;;;;;5019161;28;20576;-64
2022/05/30 03:01:45;;;;;;;14.40;8.13;;;8.50;99.90;;;;;;5022144;28;20885;-64
2022/05/30 03:04:12;;;;;;;13.87;8.10;;;8.40;99.90;;;;;;5023927;28;20262;-64
2022/05/30 03:06:40;;;;;;;12.87;7.47;;;8.30;99.90;;;;;;5021573;28;20235;-62
2022/05/30 03:09:07;;;;;;;13.37;7.63;;;8.40;99.90;;;;;;5024695;28;20713;-62
2022/05/30 03:11:41;;;;;;;13.97;8.37;;;8.30;99.90;;;;;;5025694;28;20205;-62
2022/05/30 03:14:07;;;;;;;13.77;8.47;;;8.30;99.90;;;;;;5025429;28;20220;-63
2022/05/30 03:16:34;;;;;;;11.10;7.43;;;8.20;99.90;;;;;;5020873;28;20224;-62
2022/05/30 03:19:01;;;;;;;11.33;7.27;;;8.10;99.90;;;;;;5020198;28;20223;-62
2022/05/30 03:21:27;;;;;;;12.67;7.87;;;8.00;99.90;;;;;;5026386;28;20580;-63
2022/05/30 03:23:54;;;;;;;11.83;7.17;;;8.00;99.90;;;;;;5026609;28;20196;-63
2022/05/30 03:26:21;;;;;;;13.63;7.77;;;7.90;99.90;;;;;;5026401;28;20648;-63
2022/05/30 03:28:48;;;;;;;12.97;8.10;;;7.90;99.90;;;;;;5024097;28;20233;-63
2022/05/30 03:31:14;;;;;;;13.57;8.67;;;7.90;99.90;;;;;;5025668;28;20207;-62
2022/05/30 03:33:42;;;;;;;12.33;7.90;;;7.90;99.90;;;;;;5025855;28;20477;-64
2022/05/30 03:36:20;;;;;;;13.83;8.53;;;8.00;99.90;;;;;;5026735;28;20196;-64
2022/05/30 03:38:48;;;;;;;14.70;8.63;;;8.20;99.90;;;;;;5025245;28;20626;-63
2022/05/30 03:41:15;;;;;;;13.60;8.73;;;8.30;99.90;;;;;;5025672;28;20711;-63
2022/05/30 03:43:41;;;;;;;13.93;7.67;;;8.50;99.90;;;;;;5022229;28;20209;-63
2022/05/30 03:46:08;;;;;;;12.10;8.00;;;8.50;99.90;;;;;;5019780;28;20290;-64
2022/05/30 03:48:35;;;;;;;12.43;7.83;;;8.40;99.90;;;;;;5018444;28;20194;-63
2022/05/30 03:51:12;;;;;;;14.30;7.77;;;8.30;99.90;;;;;;5021299;28;20196;-64
2022/05/30 03:53:38;;;;;;;10.00;6.77;;;8.30;99.90;;;;;;5024489;28;20196;-63
2022/05/30 03:56:05;;;;;;;9.83;6.83;;;8.30;99.90;;;;;;5023507;28;20195;-64
2022/05/30 03:58:32;;;;;;;10.10;6.57;;;8.30;99.90;;;;;;5029734;28;20202;-63
2022/05/30 04:00:59;;;;;;;13.47;7.87;;;8.30;99.90;;;;;;5016497;28;20223;-64
2022/05/30 04:03:25;;;;;;;12.97;7.57;;;8.30;99.90;;;;;;5019386;28;20193;-64
2022/05/30 04:05:52;;;;;;;11.33;7.60;;;8.30;99.90;;;;;;5022299;28;20262;-64
2022/05/30 04:08:19;;;;;;;13.10;7.77;;;8.40;99.90;;;;;;5023156;28;20196;-64
2022/05/30 04:10:46;;;;;;;12.20;6.83;;;8.40;99.90;;;;;;5019898;28;20664;-64
2022/05/30 04:13:12;;;;;;;11.97;7.27;;;8.40;99.90;;;;;;5018119;28;20215;-65
2022/05/30 04:15:39;;;;;;;10.70;6.60;;;8.40;99.90;;;;;;5023446;28;20238;-65
2022/05/30 04:18:06;;;;;;;11.47;7.40;;;8.50;99.90;;;;;;5019793;28;20206;-65
2022/05/30 04:20:33;;;;;;;13.03;7.43;;;8.40;99.90;;;;;;5022937;28;20473;-65
2022/05/30 04:23:00;;;;;;;13.40;7.40;;;8.60;99.90;;;;;;5021777;28;20204;-66
2022/05/30 04:25:27;;;;;;;11.63;6.77;;;8.60;99.90;;;;;;5024659;28;20212;-65
2022/05/30 04:27:54;;;;;;;13.37;7.97;;;8.70;99.90;;;;;;5019976;28;20198;-66
2022/05/30 04:30:21;;;;;;;14.83;7.60;;;8.80;99.90;;;;;;5021605;28;20204;-65
2022/05/30 04:32:48;;;;;;;11.23;7.47;;;9.00;99.90;;;;;;5021539;28;20582;-65
2022/05/30 04:35:15;;;;;;;12.67;7.33;;;9.30;99.90;;;;;;5017130;28;20771;-65
2022/05/30 04:37:45;;;;;;;10.20;6.90;;;9.40;99.90;;;;;;5017032;28;20473;-65
2022/05/30 04:40:15;;;;;;;10.43;6.73;;;9.40;99.90;;;;;;5032349;28;20213;-65
2022/05/30 04:42:42;;;;;;;11.50;6.87;;;9.40;99.90;;;;;;5013438;28;20645;-65
2022/05/30 04:45:09;;;;;;;10.73;6.87;;;9.60;99.90;;;;;;5022129;28;20223;-65
2022/05/30 04:47:36;;;;;;;8.67;6.13;;;9.70;99.90;;;;;;5021647;28;20188;-64
2022/05/30 04:50:05;;;;;;;9.27;6.57;;;9.90;99.90;;;;;;5015278;28;20196;-64
2022/05/30 04:52:32;;;;;;;8.37;6.07;;;10.00;99.90;;;;;;5013528;28;20194;-64
2022/05/30 04:54:59;;;;;;;8.90;5.80;;;10.00;99.90;;;;;;5006288;28;20695;-64
2022/05/30 04:57:26;;;;;;;10.80;7.00;;;10.30;99.90;;;;;;5019502;28;20647;-65
2022/05/30 04:59:52;;;;;;;9.83;6.20;;;10.40;99.90;;;;;;5019375;28;20187;-65
2022/05/30 05:02:19;;;;;;;10.97;6.13;;;10.60;99.90;;;;;;5018644;28;20192;-65
2022/05/30 05:04:47;;;;;;;8.73;5.97;;;10.70;99.90;;;;;;5024279;28;20219;-65
2022/05/30 05:07:13;;;;;;;9.10;6.03;;;10.90;99.90;;;;;;5025942;28;20195;-65
2022/05/30 05:09:46;;;;;;;10.07;5.83;;;11.10;99.90;;;;;;5018130;28;20196;-65
2022/05/30 05:12:13;;;;;;;7.87;5.77;;;11.10;99.90;;;;;;5024653;28;20209;-65
2022/05/30 05:14:39;;;;;;;9.77;5.37;;;11.20;99.90;;;;;;5023453;28;20220;-66
2022/05/30 05:17:07;;;;;;;7.27;5.20;;;11.20;99.90;;;;;;5020467;28;20204;-66
2022/05/30 05:19:34;;;;;;;5.90;4.43;;;11.10;99.90;;;;;;5019057;28;20203;-66
2022/05/30 05:22:01;;;;;;;7.67;5.10;;;11.20;99.90;;;;;;5026174;28;20217;-70
2022/05/30 05:24:28;;;;;;;6.20;4.90;;;11.30;99.90;;;;;;5018025;28;20215;-71
2022/05/30 05:26:54;;;;;;;7.53;4.73;;;11.40;99.90;;;;;;5016298;28;20192;-72
2022/05/30 05:29:21;;;;;;;7.20;5.00;;;11.40;99.90;;;;;;5015252;28;20200;-73
2022/05/30 05:31:48;;;;;;;7.83;5.37;;;11.50;99.90;;;;;;5016926;28;20202;-73
2022/05/30 05:34:16;;;;;;;6.50;4.70;;;11.60;99.90;;;;;;5024972;28;20219;-70
2022/05/30 05:36:46;;;;;;;7.47;4.80;;;11.70;99.90;;;;;;5016521;28;20214;-72
2022/05/30 05:39:17;;;;;;;7.07;5.10;;;11.90;99.90;;;;;;5021521;28;20213;-73
2022/05/30 05:41:45;;;;;;;7.63;5.07;;;12.10;99.90;;;;;;5024242;28;20220;-69
2022/05/30 05:44:13;;;;;;;7.17;4.70;;;12.40;99.90;;;;;;5020767;28;20224;-65
2022/05/30 05:46:40;;;;;;;6.93;4.53;;;12.70;99.90;;;;;;5015176;28;20199;-66
2022/05/30 05:49:09;;;;;;;7.37;4.47;;;12.90;99.90;;;;;;5019686;28;20246;-66
2022/05/30 05:51:37;;;;;;;5.63;4.43;;;13.10;99.90;;;;;;5022363;28;20911;-65
2022/05/30 05:54:04;;;;;;;5.50;4.33;;;13.20;99.90;;;;;;5020196;28;20229;-64
2022/05/30 05:56:31;;;;;;;6.93;4.60;;;13.00;99.90;;;;;;5033400;28;20195;-65
2022/05/30 05:58:59;;;;;;;6.33;4.00;;;12.80;99.90;;;;;;5017212;28;20196;-65
2022/05/30 06:01:28;;;;;;;5.37;4.10;;;12.90;99.90;;;;;;5025074;28;21143;-65
2022/05/30 06:03:57;;;;;;;7.60;3.97;;;13.20;99.90;;;;;;5011957;28;20199;-65
2022/05/30 06:06:26;;;;;;;8.10;4.50;;;13.50;99.90;;;;;;5011388;28;20971;-64
2022/05/30 06:08:56;;;;;;;7.63;4.20;;;13.50;99.90;;;;;;5019379;28;20789;-64
2022/05/30 06:11:24;;;;;;;6.03;4.23;;;13.70;99.90;;;;;;5017992;28;20387;-63
2022/05/30 06:13:51;;;;;;;6.93;4.10;;;14.00;99.90;;;;;;5018726;28;21525;-64
2022/05/30 06:16:19;;;;;;;5.10;3.80;;;14.20;99.90;;;;;;5024409;28;20642;-65
2022/05/30 06:18:48;;;;;;;6.80;4.07;;;14.40;99.90;;;;;;5015358;28;20207;-64
2022/05/30 06:21:15;;;;;;;8.80;3.90;;;14.70;99.90;;;;;;5026419;28;20232;-64
2022/05/30 06:23:44;;;;;;;6.67;4.03;;;14.60;99.90;;;;;;5015978;28;20541;-64
2022/05/30 06:26:12;;;;;;;6.43;3.40;;;14.50;99.90;;;;;;5020552;28;20198;-66
2022/05/30 06:28:44;;;;;;;6.60;3.27;;;14.20;99.90;;;;;;5026887;28;20673;-65
2022/05/30 06:31:20;;;;;;;8.17;3.30;;;14.30;99.90;;;;;;5013822;28;20378;-66
2022/05/30 06:33:47;;;;;;;4.77;3.40;;;14.40;99.90;;;;;;5014881;28;20253;-66
2022/05/30 06:36:17;;;;;;;6.83;3.00;;;14.80;99.90;;;;;;5016577;28;20200;-67
2022/05/30 06:38:44;;;;;;;6.57;3.30;;;15.10;99.90;;;;;;5017451;28;20564;-64
2022/05/30 06:41:20;;;;;;;7.90;2.80;;;15.40;99.90;;;;;;5011921;28;20238;-66
2022/05/30 06:43:57;;;;;;;10.73;3.03;;;15.60;99.90;;;;;;5019468;28;20198;-66
2022/05/30 06:46:24;;;;;;;5.43;2.53;;;15.70;99.90;;;;;;5020344;28;20192;-64
2022/05/30 06:48:55;;;;;;;6.17;2.60;;;15.90;99.90;;;;;;5010758;28;20192;-65
2022/05/30 06:51:23;;;;;;;7.90;2.40;;;16.10;99.90;;;;;;5020572;28;20576;-65
2022/05/30 06:53:50;;;;;;;5.47;1.70;;;15.90;99.90;;;;;;5022382;28;20206;-66
2022/05/30 06:56:20;;;;;;;4.43;1.47;;;16.20;99.90;;;;;;5018897;28;20247;-65
2022/05/30 06:58:50;;;;;;;2.87;1.83;;;16.50;99.90;;;;;;5020694;28;20224;-66
2022/05/30 07:01:22;;;;;;;5.77;2.10;;;16.30;99.90;;;;;;5023852;28;20614;-66
2022/05/30 07:03:49;;;;;;;5.00;1.73;;;16.30;99.90;;;;;;5019742;28;20196;-66
2022/05/30 07:06:20;;;;;;;3.10;1.70;;;16.70;99.90;;;;;;5020607;28;20539;-68
2022/05/30 07:08:47;;;;;;;3.77;1.50;;;17.10;99.90;;;;;;5014451;28;20196;-67
2022/05/30 07:11:15;;;;;;;2.13;1.70;;;17.30;99.90;;;;;;5015018;28;20681;-66
2022/05/30 07:13:43;;;;;;;2.57;1.60;;;17.20;99.90;;;;;;5008579;28;20206;-67
2022/05/30 07:16:11;;;;;;;5.83;1.70;;;17.30;99.90;;;;;;5017421;28;20203;-66
2022/05/30 07:18:39;;;;;;;2.37;1.60;;;17.10;99.90;;;;;;5038678;28;20199;-67
2022/05/30 07:21:07;;;;;;;2.40;1.67;;;16.80;99.90;;;;;;5021770;28;20610;-65
2022/05/30 07:23:35;;;;;;;2.77;1.50;;;17.10;99.90;;;;;;5015419;28;20198;-65
2022/05/30 07:26:08;;;;;;;3.23;1.60;;;17.50;99.90;;;;;;5013980;28;20205;-66
2022/05/30 07:28:35;;;;;;;5.07;1.97;;;17.80;99.90;;;;;;5015677;28;20197;-65
2022/05/30 07:31:10;;;;;;;4.20;2.10;;;18.00;99.90;;;;;;5018500;28;20206;-65
2022/05/30 07:33:40;;;;;;;3.97;2.00;;;18.50;99.90;;;;;;5019051;28;22260;-66
2022/05/30 07:36:21;;;;;;;6.67;2.30;;;18.20;99.90;;;;;;5018990;28;20199;-66
2022/05/30 07:38:49;;;;;;;4.30;1.70;;;18.50;99.90;;;;;;5018002;28;20207;-66
2022/05/30 07:41:16;;;;;;;2.73;1.60;;;18.50;99.90;;;;;;5017304;28;20211;-67
2022/05/30 07:43:44;;;;;;;2.70;1.40;;;18.50;99.90;;;;;;5033261;28;21006;-68
2022/05/30 07:46:14;;;;;;;2.57;1.57;;;18.00;99.90;;;;;;5011241;28;21124;-67
2022/05/30 07:48:41;;;;;;;4.00;1.70;;;18.30;99.90;;;;;;5010472;28;20210;-67
2022/05/30 07:51:10;;;;;;;1.87;1.73;;;18.50;99.90;;;;;;5013620;28;20196;-67
2022/05/30 07:53:38;;;;;;;3.53;1.70;;;18.30;99.90;;;;;;5012074;28;20655;-68
2022/05/30 07:56:07;;;;;;;3.20;1.40;;;18.00;99.90;;;;;;5006489;28;20218;-65
2022/05/30 07:58:34;;;;;;;2.73;1.90;;;18.20;99.90;;;;;;5017491;28;20204;-66
2022/05/30 08:01:01;;;;;;;3.90;1.70;;;18.40;99.90;;;;;;5009148;28;20213;-66
2022/05/30 08:03:28;;;;;;;3.37;1.60;;;18.70;99.90;;;;;;5013063;28;20188;-65
2022/05/30 08:06:05;;;;;;;4.37;1.50;;;18.70;99.90;;;;;;5012494;28;20220;-64
2022/05/30 08:08:32;;;;;;;2.37;1.50;;;18.90;99.90;;;;;;5018413;28;20191;-67
2022/05/30 08:10:59;;;;;;;4.90;1.70;;;19.20;99.90;;;;;;5013469;28;20196;-66
2022/05/30 08:13:26;;;;;;;3.93;1.40;;;19.20;99.90;;;;;;5009533;28;20287;-66
2022/05/30 08:15:52;;;;;;;3.27;1.73;;;19.20;99.90;;;;;;5012919;28;20486;-65
2022/05/30 08:18:19;;;;;;;4.63;1.73;;;18.90;99.90;;;;;;5013631;28;20189;-65
2022/05/30 08:20:46;;;;;;;2.57;1.50;;;19.00;99.90;;;;;;5021206;28;20654;-65
2022/05/30 08:23:13;;;;;;;3.77;1.80;;;18.90;99.90;;;;;;5020402;28;20196;-65
2022/05/30 08:25:40;;;;;;;4.30;1.97;;;18.80;99.90;;;;;;5016588;28;20228;-65
2022/05/30 08:28:10;;;;;;;4.53;2.20;;;18.30;99.90;;;;;;5014281;28;20306;-65
2022/05/30 08:30:36;;;;;;;7.73;3.80;;;17.70;99.90;;;;;;5017540;28;20200;-65
2022/05/30 08:33:09;;;;;;;3.77;1.90;;;17.60;99.90;;;;;;5018203;28;20195;-65
2022/05/30 08:35:37;;;;;;;4.37;2.83;;;17.40;99.90;;;;;;5017107;28;20718;-65
2022/05/30 08:38:04;;;;;;;6.93;2.80;;;17.20;99.90;;;;;;5012693;28;20218;-65
2022/05/30 08:43:37;;;;;;;2.20;1.50;;;16.60;99.90;;;;;;5014301;28;20211;-65
2022/05/30 08:46:12;;;;;;;3.40;1.67;;;16.50;99.90;;;;;;5013068;28;20210;-65
2022/05/30 08:49:09;;;;;;;3.27;1.60;;;16.10;99.90;;;;;;5020454;28;20203;-65
2022/05/30 08:52:04;;;;;;;2.00;1.80;;;15.90;99.90;;;;;;5018445;28;20196;-65
2022/05/30 08:55:01;;;;;;;3.97;1.90;;;15.60;99.90;;;;;;5021752;28;20238;-65
2022/05/30 08:57:41;;;;;;;3.87;2.07;;;15.00;99.90;;;;;;5012385;28;20647;-66
2022/05/30 09:00:34;;;;;;;5.50;2.03;;;14.50;99.90;;;;;;5021099;28;20551;-65
2022/05/30 09:03:10;;;;;;;4.93;2.37;;;14.20;99.90;;;;;;5008713;28;20273;-67
2022/05/30 09:05:47;;;;;;;2.90;2.27;;;13.70;99.90;;;;;;5018266;28;20233;-67
2022/05/30 09:08:44;;;;;;;4.60;2.37;;;13.60;99.90;;;;;;5017132;28;20207;-68
2022/05/30 09:11:37;;;;;;;5.40;2.20;;;13.50;99.90;;;;;;5004441;28;20222;-67
2022/05/30 09:14:22;;;;;;;5.13;2.40;;;13.40;99.90;;;;;;5016935;28;20228;-67
2022/05/30 09:16:56;;;;;;;2.77;1.90;;;13.50;99.90;;;;;;5017034;28;20207;-67
2022/05/30 09:19:25;;;;;;;5.50;2.97;;;13.80;99.90;;;;;;5012278;28;20205;-67
2022/05/30 09:22:01;;;;;;;4.50;2.30;;;14.30;99.90;;;;;;5034211;28;20221;-67
2022/05/30 09:24:35;;;;;;;8.70;3.67;;;14.80;99.90;;;;;;5017959;28;20222;-64
2022/05/30 09:27:03;;;;;;;4.10;2.13;;;15.40;99.90;;;;;;5017930;28;20566;-65
2022/05/30 09:29:48;;;;;;;14.37;5.47;;;15.90;99.90;;;;;;5016156;28;20539;-65
2022/05/30 09:32:26;;;;;;;3.73;2.00;;;16.50;99.90;;;;;;5015015;28;20213;-65
2022/05/30 09:34:53;;;;;;;2.53;1.90;;;16.90;99.90;;;;;;5016476;28;20215;-67
2022/05/30 09:37:26;;;;;;;3.43;2.10;;;17.10;99.90;;;;;;5017764;28;20199;-66
2022/05/30 09:39:53;;;;;;;3.53;1.70;;;17.20;99.90;;;;;;5021512;28;20203;-65
2022/05/30 09:42:32;;;;;;;4.87;2.30;;;17.30;99.90;;;;;;5016204;28;20225;-66
2022/05/30 09:45:26;;;;;;;8.30;1.87;;;17.60;99.90;;;;;;5009930;28;20208;-66
2022/05/30 09:48:04;;;;;;;5.07;1.90;;;18.00;99.90;;;;;;5006841;28;20196;-66
2022/05/30 09:50:30;;;;;;;4.23;1.57;;;18.60;99.90;;;;;;5018651;28;20213;-68
2022/05/30 09:52:58;;;;;;;5.20;1.50;;;19.30;99.90;;;;;;5024680;28;20196;-68
2022/05/30 09:55:39;;;;;;;2.63;1.60;;;19.90;99.90;;;;;;5024856;28;20222;-68
2022/05/30 09:58:07;;;;;;;6.37;1.70;;;20.50;99.90;;;;;;5017439;28;20555;-70
2022/05/30 10:00:53;;;;;;;2.33;1.50;;;20.80;99.90;;;;;;5013732;28;20209;-70
2022/05/30 10:03:31;;;;;;;3.17;1.42;;;20.90;99.90;;;;;;5026635;28;20306;-71
2022/05/30 10:06:18;;;;;;;3.03;1.30;;;21.00;99.90;;;;;;5015709;28;20583;-70
2022/05/30 10:08:46;;;;;;;2.00;1.10;;;21.20;99.90;;;;;;5019056;28;20199;-69
2022/05/30 10:11:32;;;;;;;2.95;1.50;;;21.70;99.90;;;;;;5021933;28;20298;-70
2022/05/30 10:14:00;;;;;;;2.85;1.30;;;22.10;99.90;;;;;;5020583;28;20219;-71
2022/05/30 10:16:33;;;;;;;2.97;1.15;;;21.70;99.90;;;;;;5024123;28;20199;-70
2022/05/30 10:19:22;;;;;;;1.98;1.45;;;21.60;99.90;;;;;;5021105;28;20282;-68
2022/05/30 10:28:28;;;;;;;3.43;1.30;;;18.90;99.90;;;;;;5022816;28;20199;-69
2022/05/30 10:31:21;;;;;;;2.53;1.40;;;18.30;99.90;;;;;;5020642;28;20279;-69
2022/05/30 10:34:06;;;;;;;3.20;1.30;;;18.10;99.90;;;;;;5019546;28;20195;-69
2022/05/30 10:36:41;;;;;;;1.83;1.37;;;18.60;99.90;;;;;;5023450;28;20207;-69
2022/05/30 10:39:25;;;;;;;3.43;1.60;;;18.90;99.90;;;;;;5014997;28;20199;-66
2022/05/30 10:41:58;;;;;;;3.60;1.60;;;19.10;99.90;;;;;;5019232;28;20218;-66
2022/05/30 10:44:55;;;;;;;2.67;1.77;;;19.00;99.90;;;;;;5020504;28;20223;-66
2022/05/30 10:47:35;;;;;;;4.60;2.00;;;17.90;99.90;;;;;;5011767;28;20207;-67
2022/05/30 10:50:16;;;;;;;5.30;1.80;;;17.60;99.90;;;;;;5014580;28;20192;-68
2022/05/30 10:52:52;;;;;;;3.07;1.90;;;17.00;99.90;;;;;;5017343;28;20196;-66
2022/05/30 10:55:38;;;;;;;3.07;1.60;;;16.70;99.90;;;;;;5012039;28;20230;-66
2022/05/30 10:58:13;;;;;;;3.60;1.57;;;16.70;99.90;;;;;;5015386;28;20203;-66
2022/05/30 11:00:50;;;;;;;3.27;1.40;;;17.00;99.90;;;;;;5015739;28;20207;-68
2022/05/30 11:03:40;;;;;;;2.17;1.50;;;17.20;99.90;;;;;;5015750;28;20221;-66
2022/05/30 11:06:13;;;;;;;4.80;1.60;;;17.00;99.90;;;;;;5018369;28;20214;-66
2022/05/30 11:09:01;;;;;;;1.87;1.67;;;16.70;99.90;;;;;;5020782;28;21616;-67
2022/05/30 11:11:42;;;;;;;2.33;1.73;;;16.70;99.90;;;;;;5019144;28;20204;-69
2022/05/30 11:14:32;;;;;;;2.83;1.70;;;16.90;99.90;;;;;;5016324;28;20212;-66
2022/05/30 11:17:41;;;;;;;4.30;1.70;;;17.20;99.90;;;;;;5022253;28;20195;-66
2022/05/30 11:20:18;;;;;;;3.43;1.83;;;17.00;99.90;;;;;;5013091;28;20241;-66
2022/05/30 11:22:50;;;;;;;2.83;1.80;;;16.90;99.90;;;;;;5016604;28;20228;-68
2022/05/30 11:25:39;;;;;;;4.23;1.90;;;17.20;99.90;;;;;;5012343;28;20226;-68
2022/05/30 11:28:29;;;;;;;3.83;1.37;;;17.60;99.90;;;;;;5011507;28;20206;-66
2022/05/30 11:31:22;;;;;;;1.70;1.40;;;18.00;99.90;;;;;;5025690;28;20204;-65
2022/05/30 11:34:29;;;;;;;2.80;1.50;;;18.20;99.90;;;;;;5014598;28;20231;-68
2022/05/30 11:37:25;;;;;;;3.13;1.47;;;18.10;99.90;;;;;;5017662;28;20191;-70
2022/05/30 11:39:58;;;;;;;2.23;1.37;;;18.50;99.90;;;;;;5024263;28;20620;-66
2022/05/30 11:42:41;;;;;;;2.30;1.50;;;18.60;99.90;;;;;;5022021;28;20215;-65
2022/05/30 11:45:33;;;;;;;1.80;1.40;;;18.60;99.90;;;;;;5016418;28;20220;-65
2022/05/30 11:48:15;;;;;;;2.33;1.50;;;18.40;99.90;;;;;;5020408;28;20509;-66
2022/05/30 11:51:02;;;;;;;2.90;1.40;;;18.50;99.90;;;;;;5021741;28;20257;-67
2022/05/30 11:53:57;;;;;;;2.23;1.40;;;18.80;99.90;;;;;;5019782;28;20256;-65
2022/05/30 11:56:33;;;;;;;1.40;1.30;;;19.40;99.90;;;;;;5026200;28;20663;-64
2022/05/30 11:59:36;;;;;;;2.47;1.50;;;19.80;99.90;;;;;;5019996;28;20682;-65
2022/05/30 12:02:10;;;;;;;3.10;1.40;;;19.80;99.90;;;;;;5019433;28;20298;-65
2022/05/30 12:04:48;;;;;;;5.63;1.50;;;19.70;99.90;;;;;;5020755;28;20220;-66
2022/05/30 12:07:32;;;;;;;3.30;1.50;;;19.40;99.90;;;;;;5018829;28;20199;-66
2022/05/30 12:10:02;;;;;;;1.97;1.40;;;19.40;99.90;;;;;;5020960;28;20213;-66
2022/05/30 12:13:01;;;;;;;1.97;1.70;;;19.40;99.90;;;;;;5019085;28;20506;-67
2022/05/30 12:15:39;;;;;;;2.07;1.43;;;19.40;99.90;;;;;;5029532;28;20216;-71
2022/05/30 12:24:18;;;;;;;1.60;1.37;;;19.20;99.90;;;;;;5015813;28;20219;-66
2022/05/30 12:26:55;;;;;;;1.53;1.20;;;19.40;99.90;;;;;;5028494;28;20221;-68
2022/05/30 12:29:37;;;;;;;2.30;1.30;;;19.40;99.90;;;;;;5012501;28;20207;-67
2022/05/30 12:32:32;;;;;;;1.40;1.17;;;19.80;99.90;;;;;;5011468;28;20352;-66
2022/05/30 12:37:45;;;;;;;1.63;1.10;;;20.70;99.90;;;;;;5012247;28;20306;-67
2022/05/30 12:40:27;;;;;;;1.98;1.10;;;21.20;99.90;;;;;;5016012;28;20659;-67
2022/05/30 12:43:06;;;;;;;2.55;1.10;;;21.70;99.90;;;;;;5015550;28;20220;-66
2022/05/30 12:45:33;;;;;;;2.20;1.42;;;21.70;99.90;;;;;;5021214;28;20219;-65
2022/05/30 12:48:22;;;;;;;3.72;1.30;;;21.90;99.90;;;;;;5016501;28;20223;-65
2022/05/30 12:50:52;;;;;;;2.72;1.40;;;21.50;99.90;;;;;;5018921;28;20204;-67
2022/05/30 12:53:21;;;;;;;1.50;1.20;;;21.80;99.90;;;;;;5023244;28;20223;-66
2022/05/30 12:55:53;;;;;;;2.72;1.30;;;21.90;99.90;;;;;;5015591;28;20215;-66
2022/05/30 12:58:35;;;;;;;2.22;1.15;;;21.60;99.90;;;;;;5020378;28;20220;-66
2022/05/30 13:01:22;;;;;;;1.42;1.33;;;21.50;99.90;;;;;;5019720;28;20468;-66
2022/05/30 13:04:08;;;;;;;1.60;1.20;;;21.30;99.90;;;;;;5024574;28;20231;-66
2022/05/30 13:06:44;;;;;;;1.48;1.20;;;21.20;99.90;;;;;;5023564;28;20607;-66
2022/05/30 13:09:33;;;;;;;2.15;1.38;;;21.20;99.90;;;;;;5016950;28;20812;-66
2022/05/30 13:12:17;;;;;;;1.55;1.20;;;21.00;99.90;;;;;;5013411;28;20212;-66
2022/05/30 13:14:59;;;;;;;3.10;1.20;;;21.10;99.90;;;;;;5010948;28;20216;-66
2022/05/30 13:17:29;;;;;;;1.85;1.30;;;21.30;99.90;;;;;;5005984;28;20227;-66
2022/05/30 13:20:07;;;;;;;1.70;1.30;;;21.70;99.90;;;;;;5011830;28;20891;-66
2022/05/30 13:22:55;;;;;;;2.05;1.30;;;21.60;99.90;;;;;;5015832;28;20250;-66
2022/05/30 13:25:47;;;;;;;2.20;1.33;;;21.50;99.90;;;;;;5011897;28;20211;-66
2022/05/30 13:28:16;;;;;;;2.42;2.00;;;21.70;99.90;;;;;;5019322;28;20566;-66
2022/05/30 13:30:43;;;;;;;2.22;1.50;;;21.50;99.90;;;;;;5014702;28;20262;-66
2022/05/30 13:33:22;;;;;;;2.45;1.40;;;21.50;99.90;;;;;;5015577;28;20257;-66
2022/05/30 13:36:15;;;;;;;4.93;1.30;;;21.60;99.90;;;;;;5013451;28;20223;-66
2022/05/30 13:38:47;;;;;;;3.58;1.60;;;21.70;99.90;;;;;;5015909;28;20212;-69
2022/05/30 13:41:23;;;;;;;2.40;1.88;;;21.90;99.90;;;;;;5018408;28;20203;-68